Terminal Aerodrome Forecast
Issued by NWS

Home | Current Version | Previous Version | Text Only | Print | Product List | Glossary On
Versions: 1 2 3 4 5 6 7 8 9 10 11 12 13 14 15 16 17 18 19
000
FTUS45 KGJT 271120
TAFRIL
TAF
KRIL 271120Z 2712/2812 08003KT P6SM BKN150
     FM271900 28006KT P6SM VCSH SCT070 BKN110
     FM272100 27010G18KT P6SM VCTS SCT070CB BKN110
     FM280200 28006KT P6SM BKN110
     FM280600 VRB03KT P6SM SCT200=

USA.gov is the U.S. government's official web portal to all federal, state and local government web resources and services.